createdAt,value
2017-04-07T08:23:12.875Z,40.56
2017-04-07T08:28:12.820Z,39.75
2017-04-07T08:33:12.791Z,42.73
2017-04-07T08:38:12.776Z,37.11
2017-04-07T08:43:12.741Z,40.79
2017-04-07T08:48:12.409Z,36.53
2017-04-07T08:53:12.695Z,36.56
2017-04-07T08:58:12.665Z,32.59
2017-04-07T09:03:12.620Z,31.74
2017-04-07T09:08:12.594Z,31.28
2017-04-07T09:13:12.598Z,32.67
2017-04-07T09:18:12.517Z,32.15
2017-04-07T09:23:12.482Z,39.22
2017-04-07T09:28:12.256Z,41.4
2017-04-07T09:33:12.435Z,40.82
2017-04-07T09:38:12.077Z,39.18
2017-04-07T09:43:12.340Z,32.54
2017-04-07T09:48:12.027Z,37.41
2017-04-07T09:53:12.282Z,34.63
2017-04-07T09:58:12.241Z,36.73
2017-04-07T10:03:12.203Z,32.32
2017-04-07T10:08:11.859Z,37.11
2017-04-07T10:13:12.125Z,36.26
2017-04-07T10:18:11.777Z,31.68
2017-04-07T10:23:12.102Z,30.93
2017-04-07T10:28:12.156Z,29.45
2017-04-07T10:33:12.335Z,28.45
2017-04-07T10:38:12.076Z,29.61
2017-04-07T10:43:12.151Z,29.47
2017-04-07T10:48:12.080Z,34.24
2017-04-07T10:53:12.093Z,30.37
2017-04-07T10:58:12.102Z,31.41
2017-04-07T11:03:12.092Z,34.71
2017-04-07T11:08:12.320Z,33.55
2017-04-07T11:13:12.099Z,32.9
2017-04-07T11:18:11.470Z,33.62
2017-04-07T11:23:12.092Z,33.74
2017-04-07T11:28:12.206Z,32.32
2017-04-07T11:33:11.870Z,31.71
2017-04-07T11:38:12.142Z,31.13
2017-04-07T11:43:12.156Z,30.34
2017-04-07T11:48:12.346Z,29.52
2017-04-07T11:53:12.132Z,29.14
2017-04-07T11:58:12.360Z,29.29
2017-04-07T12:03:12.142Z,29.15
2017-04-07T12:08:12.148Z,29.32
2017-04-07T12:13:12.211Z,29.15
2017-04-07T12:18:12.256Z,29.77
2017-04-07T12:23:12.195Z,29.58
2017-04-07T12:28:12.468Z,29.17
2017-04-07T12:33:12.238Z,29.03
2017-04-07T12:38:12.256Z,29.05
2017-04-07T12:43:12.175Z,28.92
2017-04-07T12:48:12.179Z,28.95
2017-04-07T12:53:12.412Z,28.92
2017-04-07T12:58:12.184Z,28.91
2017-04-07T13:03:11.840Z,28.92
2017-04-07T13:08:12.107Z,28.73
2017-04-07T13:13:12.065Z,28.49
2017-04-07T13:18:12.033Z,28.24
2017-04-07T13:23:11.900Z,28.2
2017-04-07T13:28:11.968Z,28.03
2017-04-07T13:33:11.617Z,27.99
2017-04-07T13:38:11.874Z,27.74
2017-04-07T13:43:11.926Z,27.72
2017-04-07T13:48:11.816Z,27.64
2017-04-07T13:53:11.564Z,27.45
2017-04-07T13:58:11.712Z,27.33
2017-04-07T14:03:11.396Z,26.99
2017-04-07T14:08:11.642Z,26.78
2017-04-07T14:13:11.527Z,26.74
2017-04-07T14:18:11.585Z,26.71
2017-04-07T14:23:11.534Z,26.61
2017-04-07T14:28:11.490Z,26.53
2017-04-07T14:33:11.438Z,26.41
2017-04-07T14:38:11.399Z,26.2
2017-04-07T14:43:11.433Z,26.03
2017-04-07T14:48:11.323Z,25.86
2017-04-07T14:53:11.293Z,25.81
2017-04-07T14:58:11.233Z,25.71
2017-04-07T15:03:11.191Z,25.67
2017-04-07T15:08:11.147Z,25.48
2017-04-07T15:13:11.111Z,25.3
2017-04-07T15:18:11.081Z,25.22
2017-04-07T15:23:11.063Z,25.08
2017-04-07T15:28:11.075Z,24.89
2017-04-07T15:33:11.047Z,24.66
2017-04-07T15:38:11.082Z,24.59
2017-04-07T15:43:11.053Z,24.49
2017-04-07T15:48:11.049Z,24.32
2017-04-07T15:53:10.731Z,24.26
2017-04-07T15:58:11.067Z,24.19
2017-04-07T16:03:11.034Z,24.04
2017-04-07T16:08:11.056Z,24.09
2017-04-07T16:13:11.019Z,23.82
2017-04-07T16:18:11.081Z,23.53
2017-04-07T16:23:11.012Z,23.06
2017-04-07T16:28:11.045Z,22.73
2017-04-07T16:33:10.983Z,22.29
2017-04-07T16:38:11.057Z,21.85
2017-04-07T16:43:10.969Z,21.56
2017-04-07T16:48:10.941Z,21.25
2017-04-07T16:53:10.933Z,20.94
2017-04-07T16:58:10.936Z,20.63
2017-04-07T17:03:10.586Z,20.41
2017-04-07T17:08:10.851Z,20.15
2017-04-07T17:13:10.837Z,19.86
2017-04-07T17:18:10.821Z,19.67
2017-04-07T17:23:10.771Z,19.49
2017-04-07T17:28:10.712Z,19.4
2017-04-07T17:33:10.638Z,19.25
2017-04-07T17:38:10.576Z,19.12
2017-04-07T17:43:10.259Z,19.06
2017-04-07T17:48:10.437Z,18.82
2017-04-07T17:53:10.400Z,18.71
2017-04-07T17:58:10.297Z,18.66
2017-04-07T18:03:10.249Z,18.61
2017-04-07T18:08:10.246Z,18.44
2017-04-07T18:13:10.232Z,18.36
2017-04-07T18:18:10.230Z,18.29
2017-04-07T18:23:10.128Z,18.17
2017-04-07T18:28:10.076Z,17.96
2017-04-07T18:33:10.057Z,17.87
2017-04-07T18:38:09.754Z,17.76
2017-04-07T18:43:10.004Z,17.54
2017-04-07T18:48:09.653Z,17.55
2017-04-07T18:53:09.918Z,17.38
2017-04-07T18:58:09.863Z,17.28
2017-04-07T19:03:09.881Z,17.17
2017-04-07T19:08:09.495Z,17.07
2017-04-07T19:13:09.789Z,17
2017-04-07T19:18:09.736Z,16.82
2017-04-07T19:23:09.702Z,16.77
2017-04-07T19:28:09.702Z,16.66
2017-04-07T19:33:09.643Z,16.57
2017-04-07T19:38:09.617Z,16.48
2017-04-07T19:43:09.581Z,16.44
2017-04-07T19:48:09.513Z,16.47
2017-04-07T19:53:09.502Z,16.36
2017-04-07T19:58:09.440Z,16.3
2017-04-07T20:03:09.418Z,16.34
2017-04-07T20:08:09.382Z,16.34
2017-04-07T20:13:09.324Z,16.34
2017-04-07T20:18:09.466Z,16.33
2017-04-07T20:23:09.251Z,16.3
2017-04-07T20:28:09.222Z,16.25
2017-04-07T20:33:09.182Z,16.32
2017-04-07T20:38:09.140Z,16.26
2017-04-07T20:43:08.841Z,16.3
2017-04-07T20:48:09.117Z,16.29
2017-04-07T20:53:09.045Z,16.26
2017-04-07T20:58:09.053Z,16.29
2017-04-07T21:03:08.977Z,16.26
2017-04-07T21:08:08.941Z,16.26
2017-04-07T21:13:08.938Z,16.17
2017-04-07T21:18:08.921Z,16.02
2017-04-07T21:23:08.857Z,15.99
2017-04-07T21:28:08.774Z,15.98
2017-04-07T21:33:08.734Z,15.98
2017-04-07T21:38:08.441Z,16
2017-04-07T21:43:08.718Z,15.99
2017-04-07T21:48:08.627Z,15.88
